createdAt,value
2018-09-05T00:00:53.220Z,13.13
2018-09-05T00:03:21.900Z,15.40
2018-09-05T00:05:50.472Z,13.43
2018-09-05T00:08:19.139Z,12.03
2018-09-05T00:10:47.832Z,12.80
2018-09-05T00:13:16.340Z,13.53
2018-09-05T00:15:44.881Z,11.80
2018-09-05T00:18:13.384Z,13.30
2018-09-05T00:20:42.984Z,13.27
2018-09-05T00:23:12.457Z,12.53
2018-09-05T00:25:41.102Z,13.43
2018-09-05T00:28:09.604Z,13.17
2018-09-05T00:30:38.166Z,13.80
2018-09-05T00:33:06.648Z,13.67
2018-09-05T00:35:35.205Z,12.93
2018-09-05T00:38:03.737Z,12.63
2018-09-05T00:40:32.236Z,13.43
2018-09-05T00:43:02.929Z,13.10
2018-09-05T00:45:32.558Z,12.83
2018-09-05T00:48:02.060Z,13.57
2018-09-05T00:50:31.571Z,13.23
2018-09-05T00:53:00.124Z,13.17
2018-09-05T00:55:28.649Z,12.27
2018-09-05T00:57:59.329Z,14.53
2018-09-05T01:00:28.134Z,12.67
2018-09-05T01:02:58.736Z,13.17
2018-09-05T01:05:28.357Z,12.60
2018-09-05T01:07:57.951Z,12.87
2018-09-05T01:10:27.562Z,14.23
2018-09-05T01:12:56.202Z,14.23
2018-09-05T01:15:24.736Z,14.47
2018-09-05T01:17:53.236Z,14.50
2018-09-05T01:20:21.742Z,14.83
2018-09-05T01:22:51.572Z,14.80
2018-09-05T01:25:20.091Z,13.47
2018-09-05T01:27:50.355Z,14.80
2018-09-05T01:30:18.916Z,16.17
2018-09-05T01:32:48.478Z,13.63
2018-09-05T01:35:17.026Z,13.30
2018-09-05T01:40:39.623Z,13.90
2018-09-05T01:43:08.141Z,14.70
2018-09-05T01:45:36.628Z,14.80
2018-09-05T01:48:05.472Z,15.93
2018-09-05T01:50:39.477Z,14.53
2018-09-05T01:53:08.041Z,14.20
2018-09-05T01:55:36.535Z,13.40
2018-09-05T01:58:05.065Z,14.23
2018-09-05T02:00:34.428Z,15.73
2018-09-05T02:03:03.748Z,15.03
2018-09-05T02:05:33.312Z,14.33
2018-09-05T02:08:02.803Z,14.73
2018-09-05T02:10:32.157Z,14.50
2018-09-05T02:13:01.356Z,15.37
2018-09-05T02:15:30.028Z,14.87
2018-09-05T02:17:58.518Z,14.73
2018-09-05T02:20:27.056Z,14.70
2018-09-05T02:22:55.600Z,14.77
2018-09-05T02:25:24.112Z,15.03
2018-09-05T02:27:52.615Z,14.43
2018-09-05T02:30:21.115Z,14.97
2018-09-05T02:32:49.601Z,14.90
2018-09-05T02:35:21.178Z,15.17
2018-09-05T02:37:49.705Z,15.03
2018-09-05T02:40:18.255Z,14.23
2018-09-05T02:42:47.175Z,14.20
2018-09-05T02:45:15.725Z,13.63
2018-09-05T02:47:44.208Z,14.27
2018-09-05T02:50:12.729Z,15.03
2018-09-05T02:52:41.369Z,14.97
2018-09-05T02:55:10.064Z,14.90
2018-09-05T02:57:38.614Z,15.07
2018-09-05T03:00:07.175Z,15.17
2018-09-05T03:02:35.688Z,14.93
2018-09-05T03:05:04.197Z,14.10
2018-09-05T03:07:32.711Z,14.33
2018-09-05T03:10:01.234Z,13.53
2018-09-05T03:12:30.380Z,13.30
2018-09-05T03:14:58.924Z,13.60
2018-09-05T03:17:27.525Z,14.80
2018-09-05T03:19:56.110Z,13.57
2018-09-05T03:22:24.665Z,14.03
2018-09-05T03:24:53.213Z,14.23
2018-09-05T03:27:21.796Z,13.83
2018-09-05T03:29:50.305Z,13.83
2018-09-05T03:32:18.901Z,15.43
2018-09-05T03:34:47.424Z,14.87
2018-09-05T03:37:15.924Z,14.23
2018-09-05T03:39:44.557Z,13.87
2018-09-05T03:42:13.017Z,14.30
2018-09-05T03:44:41.530Z,15.00
2018-09-05T03:47:10.044Z,13.93
2018-09-05T03:49:38.579Z,15.30
2018-09-05T03:52:07.755Z,15.10
2018-09-05T03:54:36.421Z,14.30
2018-09-05T03:57:05.504Z,15.00
2018-09-05T03:59:34.222Z,13.80
2018-09-05T04:02:02.738Z,14.13
2018-09-05T04:04:31.308Z,15.03
2018-09-05T04:06:59.845Z,14.57
2018-09-05T04:09:28.354Z,14.07
2018-09-05T04:11:56.873Z,13.93
2018-09-05T04:14:25.467Z,14.47
2018-09-05T04:16:53.936Z,15.30
2018-09-05T04:19:22.493Z,14.93
2018-09-05T04:21:50.999Z,15.60
2018-09-05T04:24:19.461Z,14.93
2018-09-05T04:26:47.966Z,15.60
2018-09-05T04:29:16.523Z,15.87
2018-09-05T04:31:44.997Z,15.17
2018-09-05T04:34:13.532Z,15.77
2018-09-05T04:36:42.049Z,15.67
2018-09-05T04:39:10.817Z,15.80
2018-09-05T04:41:39.349Z,16.10
2018-09-05T04:44:08.288Z,16.10
2018-09-05T04:46:36.790Z,15.87
2018-09-05T04:49:05.309Z,16.30
2018-09-05T04:51:35.139Z,16.60
2018-09-05T04:54:04.460Z,16.70
2018-09-05T04:56:32.956Z,18.43
2018-09-05T04:59:01.468Z,17.13
2018-09-05T05:01:29.958Z,17.70
2018-09-05T05:03:58.433Z,17.40
2018-09-05T05:06:26.940Z,19.17
2018-09-05T05:08:55.452Z,18.70
2018-09-05T05:11:23.966Z,18.40
2018-09-05T05:13:52.526Z,18.03
2018-09-05T05:16:21.030Z,18.63
2018-09-05T05:18:49.541Z,18.10
2018-09-05T05:21:18.040Z,17.40
2018-09-05T05:23:46.553Z,17.33
2018-09-05T05:26:15.128Z,17.17
2018-09-05T05:28:43.931Z,17.20
2018-09-05T05:31:13.428Z,19.67
2018-09-05T05:33:41.935Z,17.97
2018-09-05T05:36:10.436Z,17.70
2018-09-05T05:38:38.947Z,17.13
2018-09-05T05:41:07.558Z,17.10
2018-09-05T05:43:36.237Z,18.47
2018-09-05T05:46:04.770Z,19.37
2018-09-05T05:48:33.261Z,20.30
2018-09-05T05:51:01.786Z,20.83
2018-09-05T05:53:30.261Z,23.70
2018-09-05T05:55:58.785Z,23.73
2018-09-05T05:58:27.266Z,22.60
2018-09-05T06:00:55.840Z,22.20
2018-09-05T06:03:24.289Z,19.70
2018-09-05T06:05:52.875Z,17.93
2018-09-05T06:08:21.295Z,18.23
2018-09-05T06:10:49.743Z,17.30
2018-09-05T06:13:18.258Z,16.97
2018-09-05T06:15:46.735Z,18.30
2018-09-05T06:18:15.225Z,20.03
2018-09-05T06:20:43.852Z,22.93
2018-09-05T06:23:12.409Z,24.13
2018-09-05T06:25:40.863Z,27.40
2018-09-05T06:28:09.376Z,22.97
2018-09-05T06:30:37.936Z,22.53
2018-09-05T06:33:06.359Z,25.73
2018-09-05T06:35:34.858Z,44.17
2018-09-05T06:38:03.370Z,32.20
2018-09-05T06:40:31.855Z,23.07
2018-09-05T06:43:00.448Z,29.10
2018-09-05T06:45:28.935Z,24.60
2018-09-05T06:47:57.394Z,26.07
2018-09-05T06:50:25.929Z,30.43
2018-09-05T06:52:54.412Z,26.37
2018-09-05T06:55:22.920Z,24.90
2018-09-05T06:57:51.441Z,28.83
2018-09-05T07:00:20.075Z,26.20
2018-09-05T07:02:48.685Z,24.17
2018-09-05T07:05:17.663Z,24.10
2018-09-05T07:07:46.193Z,22.70
2018-09-05T07:10:14.692Z,23.20
2018-09-05T07:12:43.161Z,22.07
2018-09-05T07:15:11.721Z,23.57
2018-09-05T07:17:40.296Z,26.57
2018-09-05T07:20:08.716Z,22.60
2018-09-05T07:22:37.232Z,23.77
2018-09-05T07:25:06.382Z,26.07
2018-09-05T07:27:34.747Z,27.30
2018-09-05T07:30:03.245Z,27.73
2018-09-05T07:32:31.779Z,27.13
2018-09-05T07:35:00.274Z,28.80
2018-09-05T07:37:28.773Z,27.80
2018-09-05T07:39:57.270Z,32.13
2018-09-05T07:42:25.756Z,29.67
2018-09-05T07:44:54.246Z,30.33
2018-09-05T07:47:23.862Z,29.57
2018-09-05T07:49:52.355Z,30.63
2018-09-05T07:52:20.849Z,34.53
2018-09-05T07:54:49.392Z,29.73
2018-09-05T07:57:17.963Z,30.40
2018-09-05T07:59:46.369Z,28.90
2018-09-05T08:02:14.845Z,30.93
2018-09-05T08:04:43.345Z,29.40
2018-09-05T08:07:11.845Z,30.47
2018-09-05T08:09:40.349Z,29.90
2018-09-05T08:12:08.856Z,30.63
2018-09-05T08:14:37.393Z,30.13
2018-09-05T08:17:05.885Z,29.67
2018-09-05T08:19:34.531Z,30.93
2018-09-05T08:22:03.014Z,28.93
2018-09-05T08:24:31.670Z,32.93
2018-09-05T08:27:00.146Z,31.83
2018-09-05T08:29:28.649Z,30.87
2018-09-05T08:31:57.130Z,29.13
2018-09-05T08:34:25.643Z,29.47
2018-09-05T08:36:54.454Z,28.93
2018-09-05T08:39:23.637Z,27.03
2018-09-05T08:41:52.191Z,27.90
2018-09-05T08:44:20.723Z,27.30
2018-09-05T08:46:49.142Z,25.40
2018-09-05T08:49:17.608Z,27.20
2018-09-05T08:51:46.104Z,26.57
2018-09-05T08:54:14.620Z,25.70
2018-09-05T08:56:43.107Z,27.80
2018-09-05T08:59:11.589Z,26.47
2018-09-05T09:01:40.218Z,27.23
2018-09-05T09:04:08.723Z,28.13
2018-09-05T09:06:37.211Z,28.47
2018-09-05T09:09:07.199Z,28.70
2018-09-05T09:11:36.014Z,28.90
2018-09-05T09:14:04.574Z,27.80
2018-09-05T09:16:33.120Z,27.83
2018-09-05T09:19:02.582Z,28.80
2018-09-05T09:21:31.098Z,28.30
2018-09-05T09:23:59.601Z,29.53
2018-09-05T09:26:28.118Z,28.80
2018-09-05T09:28:57.340Z,28.20
2018-09-05T09:31:25.893Z,28.00
2018-09-05T09:33:54.398Z,29.20
2018-09-05T09:36:22.887Z,28.10
2018-09-05T09:38:51.368Z,27.27
2018-09-05T09:41:19.832Z,27.47
2018-09-05T09:43:48.321Z,28.63
2018-09-05T09:46:16.801Z,28.70
2018-09-05T09:48:45.317Z,28.23
2018-09-05T09:51:13.800Z,28.47
2018-09-05T09:53:42.335Z,27.87
2018-09-05T09:56:10.826Z,27.53
2018-09-05T09:58:39.328Z,25.93
2018-09-05T10:01:13.343Z,26.93
2018-09-05T10:03:47.403Z,26.03
2018-09-05T10:06:19.304Z,26.00
2018-09-05T10:08:53.218Z,23.80
2018-09-05T10:11:26.985Z,25.13
2018-09-05T10:14:00.734Z,25.20
2018-09-05T10:16:34.537Z,24.67
2018-09-05T10:19:07.453Z,22.07
2018-09-05T10:21:36.587Z,22.57
2018-09-05T10:24:05.171Z,22.47
2018-09-05T10:26:33.641Z,20.90
2018-09-05T10:29:02.139Z,19.43
2018-09-05T10:31:30.611Z,20.63
2018-09-05T10:34:00.017Z,16.83
2018-09-05T10:36:28.502Z,18.77
2018-09-05T10:38:57.003Z,16.37
2018-09-05T10:41:25.698Z,17.83
2018-09-05T10:43:54.202Z,16.07
2018-09-05T10:46:22.652Z,17.83
2018-09-05T10:48:51.157Z,16.83
2018-09-05T10:51:24.217Z,19.40
2018-09-05T10:53:52.708Z,19.30
2018-09-05T10:56:21.184Z,17.50
2018-09-05T10:58:49.652Z,17.83
2018-09-05T11:01:18.205Z,17.97
2018-09-05T11:03:46.732Z,16.40
2018-09-05T11:06:15.204Z,18.83
2018-09-05T11:08:43.685Z,15.33
2018-09-05T11:11:12.170Z,15.40
2018-09-05T11:13:40.673Z,13.93
2018-09-05T11:16:09.226Z,13.63
2018-09-05T11:18:37.754Z,15.80
2018-09-05T11:21:06.277Z,15.77
2018-09-05T11:23:34.778Z,15.17
2018-09-05T11:26:03.860Z,15.78
2018-09-05T11:28:32.430Z,17.00
2018-09-05T11:31:00.932Z,15.57
2018-09-05T11:33:29.434Z,15.30
2018-09-05T11:35:57.942Z,13.73
2018-09-05T11:38:26.430Z,15.07
2018-09-05T11:40:54.930Z,14.50
2018-09-05T11:43:23.497Z,19.37
2018-09-05T11:45:51.988Z,51.60
2018-09-05T11:48:20.483Z,40.10
2018-09-05T11:50:48.987Z,73.03
2018-09-05T11:53:18.490Z,185.07
2018-09-05T11:55:47.546Z,182.77
2018-09-05T11:58:16.109Z,166.67
2018-09-05T12:00:44.610Z,53.80
2018-09-05T12:03:13.157Z,76.80
2018-09-05T12:05:41.665Z,21.20
2018-09-05T12:08:10.174Z,51.13
2018-09-05T12:10:38.696Z,44.27
2018-09-05T12:13:07.213Z,29.57
2018-09-05T12:15:35.717Z,42.47
2018-09-05T12:18:04.199Z,33.63
2018-09-05T12:20:32.714Z,18.20
2018-09-05T12:23:01.241Z,27.53
2018-09-05T12:25:29.769Z,16.30
2018-09-05T12:27:58.315Z,18.07
2018-09-05T12:30:26.877Z,17.37
2018-09-05T12:32:55.357Z,17.03
2018-09-05T12:35:23.968Z,14.67
2018-09-05T12:37:52.465Z,13.20
2018-09-05T12:40:21.148Z,18.53
2018-09-05T12:42:49.646Z,63.07
2018-09-05T12:45:18.401Z,75.77
2018-09-05T12:47:46.888Z,193.57
2018-09-05T12:50:15.521Z,139.83
2018-09-05T12:52:44.028Z,111.00
2018-09-05T12:55:12.545Z,134.70
2018-09-05T12:57:41.093Z,37.67
2018-09-05T13:00:10.049Z,40.17
2018-09-05T13:02:39.596Z,31.50
2018-09-05T13:05:08.146Z,25.87
2018-09-05T13:07:36.615Z,17.90
2018-09-05T13:10:05.121Z,14.27
2018-09-05T13:13:08.400Z,22.50
2018-09-05T13:15:36.957Z,26.37
2018-09-05T13:18:05.467Z,13.50
2018-09-05T13:23:20.553Z,11.77
2018-09-05T13:25:49.057Z,11.37
2018-09-05T13:28:17.548Z,10.97
2018-09-05T13:30:46.088Z,10.50
2018-09-05T13:33:14.737Z,13.33
2018-09-05T13:35:43.377Z,12.80
2018-09-05T13:38:11.926Z,10.70
2018-09-05T13:40:40.829Z,12.10
2018-09-05T13:43:09.330Z,12.03
2018-09-05T13:45:38.324Z,44.40
2018-09-05T13:48:07.632Z,37.10
2018-09-05T13:50:36.416Z,44.53
2018-09-05T13:53:05.053Z,100.67
2018-09-05T13:55:33.533Z,28.23
2018-09-05T13:58:02.034Z,21.80
2018-09-05T14:00:30.565Z,21.37
2018-09-05T14:02:59.064Z,23.20
2018-09-05T14:05:27.573Z,18.60
2018-09-05T14:07:56.070Z,12.77
2018-09-05T14:10:24.537Z,13.03
2018-09-05T14:12:53.055Z,14.10
2018-09-05T14:15:21.593Z,22.83
2018-09-05T14:17:50.103Z,14.60
2018-09-05T14:20:18.645Z,13.30
2018-09-05T14:22:47.144Z,18.03
2018-09-05T14:25:15.714Z,14.03
2018-09-05T14:27:44.216Z,11.53
2018-09-05T14:30:12.705Z,13.47
2018-09-05T14:32:41.183Z,16.23
2018-09-05T14:35:09.697Z,12.63
2018-09-05T14:37:38.213Z,16.47
2018-09-05T14:40:07.033Z,16.03
2018-09-05T14:42:35.493Z,12.17
2018-09-05T14:45:03.983Z,13.73
2018-09-05T14:47:32.508Z,10.63
2018-09-05T14:50:01.264Z,10.20
2018-09-05T14:52:29.747Z,11.35
2018-09-05T14:54:58.306Z,12.90
2018-09-05T14:57:26.810Z,10.97
2018-09-05T14:59:55.366Z,10.60
2018-09-05T15:02:23.882Z,10.95
2018-09-05T15:04:52.403Z,10.97
2018-09-05T15:07:21.033Z,10.68
2018-09-05T15:09:49.515Z,10.80
2018-09-05T15:12:17.993Z,12.00
2018-09-05T15:14:46.481Z,11.93
2018-09-05T15:17:15.017Z,11.05
2018-09-05T15:19:43.562Z,10.20
2018-09-05T15:22:12.039Z,12.83
2018-09-05T15:24:40.549Z,10.65
2018-09-05T15:27:09.081Z,11.57
2018-09-05T15:29:38.463Z,10.70
2018-09-05T15:32:06.952Z,11.37
2018-09-05T15:34:35.423Z,11.73
2018-09-05T15:37:03.985Z,10.20
2018-09-05T15:39:32.549Z,11.13
2018-09-05T15:42:01.028Z,32.80
2018-09-05T15:44:29.509Z,44.77
2018-09-05T15:46:58.062Z,97.50
2018-09-05T15:49:26.507Z,44.07
2018-09-05T15:51:55.848Z,97.47
2018-09-05T15:54:25.415Z,17.57
2018-09-05T15:56:54.015Z,11.50
2018-09-05T15:59:23.297Z,18.97
2018-09-05T16:01:52.607Z,13.40
2018-09-05T16:04:21.113Z,10.93
2018-09-05T16:06:49.648Z,15.07
2018-09-05T16:09:18.143Z,11.00
2018-09-05T16:11:46.662Z,10.93
2018-09-05T16:16:50.189Z,12.20
2018-09-05T16:19:18.691Z,12.53
2018-09-05T16:21:47.263Z,11.63
2018-09-05T16:24:16.498Z,11.07
2018-09-05T16:26:45.045Z,10.77
2018-09-05T16:29:13.527Z,11.47
2018-09-05T16:31:42.072Z,10.33
2018-09-05T16:34:10.545Z,12.07
2018-09-05T16:36:39.153Z,11.53
2018-09-05T16:39:08.393Z,12.03
2018-09-05T16:41:37.306Z,10.83
2018-09-05T16:44:06.158Z,11.23
2018-09-05T16:46:35.645Z,10.90
2018-09-05T16:49:04.345Z,10.80
2018-09-05T16:51:32.846Z,11.27
2018-09-05T16:54:02.035Z,11.00
2018-09-05T16:56:30.914Z,10.97
2018-09-05T16:58:59.388Z,10.53
2018-09-05T17:01:27.933Z,11.23
2018-09-05T17:03:56.442Z,11.40
2018-09-05T17:06:24.963Z,10.97
2018-09-05T17:08:53.428Z,10.83
2018-09-05T17:11:22.141Z,10.80
2018-09-05T17:13:50.723Z,10.73
2018-09-05T17:16:19.281Z,10.60
2018-09-05T17:18:47.788Z,10.63
2018-09-05T17:21:16.273Z,11.10
2018-09-05T17:23:44.931Z,10.37
2018-09-05T17:26:13.452Z,11.30
2018-09-05T17:28:42.024Z,11.17
2018-09-05T17:31:10.737Z,11.27
2018-09-05T17:33:39.333Z,11.00
2018-09-05T17:36:07.902Z,10.27
2018-09-05T17:38:36.386Z,10.63
2018-09-05T17:41:04.892Z,11.20
2018-09-05T17:43:33.381Z,10.30
2018-09-05T17:46:01.890Z,9.63
2018-09-05T17:48:30.357Z,10.40
2018-09-05T17:50:58.859Z,9.77
2018-09-05T17:53:27.407Z,9.90
2018-09-05T17:55:55.839Z,9.93
2018-09-05T17:58:24.316Z,10.33
2018-09-05T18:00:52.885Z,10.47
2018-09-05T18:03:21.656Z,10.23
2018-09-05T18:05:50.148Z,10.93
2018-09-05T18:08:19.072Z,10.57
2018-09-05T18:10:47.587Z,11.10
2018-09-05T18:13:16.049Z,16.47
2018-09-05T18:15:44.552Z,70.60
2018-09-05T18:18:13.029Z,74.30
2018-09-05T18:20:41.599Z,43.70
2018-09-05T18:23:10.073Z,25.47
2018-09-05T18:25:38.671Z,37.77
2018-09-05T18:28:07.144Z,19.60
2018-09-05T18:30:35.638Z,14.57
2018-09-05T18:33:04.121Z,15.23
2018-09-05T18:35:32.704Z,15.83
2018-09-05T18:38:01.236Z,19.60
2018-09-05T18:40:29.684Z,19.27
2018-09-05T18:42:58.248Z,12.23
2018-09-05T18:45:26.743Z,11.20
2018-09-05T18:47:55.229Z,13.73
2018-09-05T18:50:23.725Z,12.67
2018-09-05T18:52:56.600Z,12.77
2018-09-05T18:55:25.990Z,11.33
2018-09-05T18:57:55.869Z,11.60
2018-09-05T19:00:24.495Z,11.00
2018-09-05T19:02:52.999Z,11.80
2018-09-05T19:05:21.673Z,11.27
2018-09-05T19:07:50.153Z,10.30
2018-09-05T19:10:18.674Z,11.13
2018-09-05T19:12:47.141Z,10.67
2018-09-05T19:15:15.710Z,10.17
2018-09-05T19:17:44.205Z,10.80
2018-09-05T19:20:12.689Z,11.33
2018-09-05T19:22:41.271Z,10.67
2018-09-05T19:25:09.750Z,11.90
2018-09-05T19:27:38.332Z,10.23
2018-09-05T19:30:06.848Z,10.10
2018-09-05T19:32:35.571Z,10.50
2018-09-05T19:35:04.233Z,9.63
2018-09-05T19:37:32.720Z,10.83
2018-09-05T19:40:01.204Z,9.97
2018-09-05T19:42:29.794Z,10.93
2018-09-05T19:44:58.255Z,10.27
2018-09-05T19:47:26.784Z,10.23
2018-09-05T19:49:55.300Z,10.23
2018-09-05T19:52:23.804Z,9.73
2018-09-05T19:54:52.421Z,9.57
2018-09-05T19:57:20.928Z,9.43
2018-09-05T19:59:49.379Z,9.37
2018-09-05T20:02:17.917Z,8.60
2018-09-05T20:04:46.394Z,8.73
2018-09-05T20:07:14.884Z,9.93
2018-09-05T20:09:43.383Z,9.43
2018-09-05T20:12:11.865Z,9.97
2018-09-05T20:14:40.335Z,9.97
2018-09-05T20:17:08.813Z,9.40
2018-09-05T20:19:37.324Z,9.20
2018-09-05T20:22:07.675Z,9.27
2018-09-05T20:24:36.241Z,8.70
2018-09-05T20:27:04.985Z,9.73
2018-09-05T20:29:33.451Z,9.30
2018-09-05T20:32:01.957Z,9.60
2018-09-05T20:34:30.455Z,9.23
2018-09-05T20:36:58.967Z,9.37
2018-09-05T20:39:27.460Z,8.80
2018-09-05T20:41:55.972Z,8.70
2018-09-05T20:44:24.499Z,9.03
2018-09-05T20:46:53.001Z,9.50
2018-09-05T20:49:21.482Z,9.27
2018-09-05T20:51:50.036Z,9.40
2018-09-05T20:54:18.575Z,9.40
2018-09-05T20:56:47.089Z,9.57
2018-09-05T20:59:15.795Z,9.13
2018-09-05T21:01:44.673Z,8.70
2018-09-05T21:04:13.132Z,8.60
2018-09-05T21:06:41.617Z,8.93
2018-09-05T21:09:10.098Z,8.63
2018-09-05T21:11:38.576Z,8.45
2018-09-05T21:14:07.053Z,8.70
2018-09-05T21:16:35.910Z,7.93
2018-09-05T21:19:05.517Z,8.07
2018-09-05T21:21:34.093Z,32.00
2018-09-05T21:24:02.661Z,70.43
2018-09-05T21:26:31.597Z,46.63
2018-09-05T21:29:00.017Z,25.80
2018-09-05T21:31:28.486Z,16.73
2018-09-05T21:33:57.531Z,18.57
2018-09-05T21:36:27.177Z,37.53
2018-09-05T21:38:56.076Z,12.67
2018-09-05T21:41:24.682Z,42.33
2018-09-05T21:43:53.174Z,32.10
2018-09-05T21:46:22.932Z,19.13
2018-09-05T21:48:51.545Z,16.67
2018-09-05T21:51:20.089Z,34.10
2018-09-05T21:53:48.626Z,35.50
2018-09-05T21:56:17.108Z,32.77
2018-09-05T21:58:45.620Z,74.13
2018-09-05T22:01:14.145Z,23.07
2018-09-05T22:03:42.758Z,67.50
2018-09-05T22:06:11.188Z,55.43
2018-09-05T22:08:39.668Z,25.77
2018-09-05T22:11:14.078Z,26.63
2018-09-05T22:13:42.747Z,33.23
2018-09-05T22:16:11.293Z,16.33
2018-09-05T22:18:39.779Z,13.93
2018-09-05T22:21:08.245Z,14.23
2018-09-05T22:23:36.752Z,14.77
2018-09-05T22:26:05.296Z,18.00
2018-09-05T22:28:33.765Z,23.17
2018-09-05T22:31:02.221Z,20.03
2018-09-05T22:33:30.711Z,29.10
2018-09-05T22:35:59.320Z,15.97
2018-09-05T22:38:27.851Z,16.70
2018-09-05T22:40:56.543Z,19.80
2018-09-05T22:43:30.660Z,13.73
2018-09-05T22:46:04.837Z,16.77
2018-09-05T22:48:42.890Z,17.63
2018-09-05T22:51:28.212Z,15.07
2018-09-05T22:54:07.854Z,11.63
2018-09-05T22:56:48.122Z,17.90
2018-09-05T22:59:24.885Z,18.97
2018-09-05T23:01:58.953Z,12.70
2018-09-05T23:04:32.900Z,13.63
2018-09-05T23:07:06.954Z,12.50
2018-09-05T23:09:41.138Z,15.07
2018-09-05T23:12:19.089Z,11.97
2018-09-05T23:14:55.942Z,11.43
2018-09-05T23:17:29.934Z,11.57
2018-09-05T23:20:19.964Z,12.53
2018-09-05T23:23:58.181Z,14.63
2018-09-05T23:26:27.185Z,15.30
2018-09-05T23:28:55.689Z,13.50
2018-09-05T23:31:24.340Z,12.10
2018-09-05T23:33:52.919Z,11.87
2018-09-05T23:36:21.804Z,12.57
2018-09-05T23:38:50.267Z,11.73
2018-09-05T23:41:18.768Z,13.70
2018-09-05T23:43:47.342Z,12.10
2018-09-05T23:46:15.842Z,11.90
2018-09-05T23:48:44.362Z,12.63
2018-09-05T23:51:12.859Z,12.30
2018-09-05T23:53:41.332Z,11.43
2018-09-05T23:56:09.821Z,12.37
2018-09-05T23:58:38.292Z,16.67
